createdAt,value
2019-05-23T00:01:57.751Z,96.9
2019-05-23T00:06:01.970Z,96.9
2019-05-23T00:07:03.367Z,96.8
2019-05-23T00:08:04.775Z,96.9
2019-05-23T00:09:06.167Z,96.8
2019-05-23T00:10:07.558Z,96.9
2019-05-23T00:11:08.983Z,96.7
2019-05-23T00:12:10.378Z,96.7
2019-05-23T00:13:11.155Z,96.7
2019-05-23T00:14:12.548Z,96.7
2019-05-23T00:19:18.590Z,96.6
2019-05-23T00:20:19.965Z,96.6
2019-05-23T00:23:23.005Z,96.6
2019-05-23T00:24:24.406Z,96.7
2019-05-23T00:25:25.811Z,96.5
2019-05-23T00:26:27.221Z,96.5
2019-05-23T00:27:28.625Z,96.6
2019-05-23T00:28:30.016Z,96.7
2019-05-23T00:29:31.411Z,96.8
2019-05-23T00:30:32.838Z,96.7
2019-05-23T00:31:34.236Z,96.7
2019-05-23T00:32:38.274Z,96.7
2019-05-23T00:33:36.001Z,96.8
2019-05-23T00:34:37.408Z,96.7
2019-05-23T00:44:48.771Z,96.7
2019-05-23T00:45:50.194Z,96.8
2019-05-23T00:46:51.607Z,96.7
2019-05-23T00:47:53.004Z,96.8
2019-05-23T00:48:54.403Z,96.8
2019-05-23T00:49:55.794Z,96.7
2019-05-23T00:50:57.244Z,96.7
2019-05-23T00:51:58.508Z,96.8
2019-05-23T00:52:59.922Z,96.9
2019-05-23T00:54:00.922Z,96.8
2019-05-23T00:56:02.469Z,96.8
2019-05-23T00:57:03.858Z,96.8
2019-05-23T00:58:05.264Z,96.7
2019-05-23T01:00:07.562Z,96.6
2019-05-23T01:01:08.974Z,96.6
2019-05-23T01:02:10.369Z,96.6
2019-05-23T01:04:12.266Z,96.6
2019-05-23T01:05:13.654Z,96.7
2019-05-23T01:06:15.070Z,96.9
2019-05-23T01:07:16.458Z,96.6
2019-05-23T01:08:17.049Z,96.6
2019-05-23T01:09:18.449Z,96.5
2019-05-23T01:10:19.850Z,96.6
2019-05-23T01:11:21.257Z,96.5
2019-05-23T01:12:22.659Z,96.5
2019-05-23T01:13:24.054Z,96.5
2019-05-23T01:14:27.717Z,96.6
2019-05-23T01:15:26.230Z,96.6
2019-05-23T01:20:31.136Z,96.5
2019-05-23T01:21:32.552Z,96.4
2019-05-23T01:24:35.754Z,96.4
2019-05-23T01:25:37.150Z,96.6
2019-05-23T01:26:38.559Z,96.6
2019-05-23T01:27:39.962Z,96.6
2019-05-23T01:30:43.404Z,96.6
2019-05-23T01:31:44.817Z,96.6
2019-05-23T01:33:47.340Z,96.7
2019-05-23T01:34:48.104Z,96.5
2019-05-23T01:41:56.309Z,96.6
2019-05-23T01:42:57.703Z,96.5
2019-05-23T01:46:00.718Z,96.5
2019-05-23T01:47:02.123Z,96.6
2019-05-23T01:52:08.049Z,96.5
2019-05-23T01:53:09.459Z,96.5
2019-05-23T01:54:10.850Z,96.5
2019-05-23T01:55:11.610Z,96.5
2019-05-23T01:56:13.012Z,96.4
2019-05-23T01:57:14.422Z,96.4
2019-05-23T01:58:18.665Z,96.4
2019-05-23T01:59:16.990Z,96.4
2019-05-23T02:00:18.388Z,96.5
2019-05-23T02:05:23.692Z,96.6
2019-05-23T02:06:25.084Z,96.6
2019-05-23T02:07:26.493Z,96.8
2019-05-23T02:08:27.890Z,96.7
2019-05-23T02:12:32.682Z,96.7
2019-05-23T02:13:34.079Z,96.7
2019-05-23T02:14:35.475Z,96.7
2019-05-23T02:15:36.235Z,96.6
2019-05-23T02:18:39.914Z,96.7
2019-05-23T02:19:41.494Z,96.7
2019-05-23T02:20:41.879Z,96.7
2019-05-23T02:21:43.269Z,96.7
2019-05-23T02:22:44.688Z,96.7
2019-05-23T02:23:46.083Z,96.7
2019-05-23T02:24:47.481Z,96.7
2019-05-23T02:31:55.050Z,96.6
2019-05-23T02:32:56.470Z,96.7
2019-05-23T02:33:57.836Z,96.5
2019-05-23T02:34:59.237Z,96.6
2019-05-23T02:39:03.406Z,96.6
2019-05-23T02:40:04.790Z,96.6
2019-05-23T02:41:06.384Z,96.7
2019-05-23T02:42:06.764Z,96.7
2019-05-23T02:43:08.160Z,96.6
2019-05-23T02:44:09.581Z,96.6
2019-05-23T02:46:11.474Z,96.7
2019-05-23T02:49:15.157Z,96.6
2019-05-23T02:50:16.552Z,96.5
2019-05-23T02:51:17.945Z,96.5
2019-05-23T02:52:19.336Z,96.5
2019-05-23T02:53:20.758Z,96.5
2019-05-23T02:55:23.224Z,96.3
2019-05-23T02:56:23.967Z,96.4
2019-05-23T02:57:25.545Z,96.5
2019-05-23T02:58:26.920Z,96.5
2019-05-23T03:01:30.212Z,96.7
2019-05-23T03:02:34.494Z,96.8
2019-05-23T03:03:32.856Z,96.7
2019-05-23T03:04:34.242Z,96.6
2019-05-23T03:06:35.305Z,96.5
2019-05-23T03:08:37.875Z,96.5
2019-05-23T03:14:44.945Z,96.6
2019-05-23T03:15:49.053Z,96.6
2019-05-23T03:16:46.986Z,96.5
2019-05-23T03:17:48.406Z,96.5
2019-05-23T03:18:49.796Z,96.5
2019-05-23T03:19:51.221Z,96.6
2019-05-23T03:20:52.611Z,96.6
2019-05-23T03:21:54.010Z,96.4
2019-05-23T03:22:55.466Z,96.4
2019-05-23T03:23:56.890Z,96.5
2019-05-23T03:24:58.286Z,96.6
2019-05-23T03:25:59.675Z,96.5
2019-05-23T03:27:00.021Z,96.6
2019-05-23T03:31:31.297Z,96.5
2019-05-23T03:35:09.489Z,96.7
2019-05-23T03:36:10.885Z,96.6
2019-05-23T03:37:11.733Z,96.7
2019-05-23T03:38:12.781Z,96.8
2019-05-23T03:39:14.181Z,96.8
2019-05-23T03:40:15.606Z,96.9
2019-05-23T03:41:17.001Z,96.9
2019-05-23T03:42:18.396Z,96.8
2019-05-23T03:43:19.792Z,96.9
2019-05-23T03:45:22.550Z,96.9
2019-05-23T03:46:23.137Z,96.9
2019-05-23T03:47:23.892Z,96.9
2019-05-23T03:48:25.292Z,97.2
2019-05-23T03:49:26.688Z,96.9
2019-05-23T03:50:28.111Z,96.8
2019-05-23T03:51:29.502Z,96.9
2019-05-23T03:52:30.903Z,96.9
2019-05-23T03:53:32.283Z,96.9
2019-05-23T03:54:33.681Z,97
2019-05-23T03:57:36.735Z,97.1
2019-05-23T03:58:38.117Z,97
2019-05-23T03:59:39.518Z,97.1
2019-05-23T04:00:40.943Z,97.5
2019-05-23T04:01:49.334Z,97.2
2019-05-23T04:02:43.714Z,97.3
2019-05-23T04:03:45.117Z,97.2
2019-05-23T04:04:46.526Z,97.3
2019-05-23T04:05:47.947Z,97.2
2019-05-23T04:06:49.443Z,97.2
2019-05-23T04:07:50.201Z,97.1
2019-05-23T04:08:51.600Z,97.1
2019-05-23T04:09:53.028Z,97.2
2019-05-23T04:10:54.422Z,97.2
2019-05-23T04:11:55.821Z,97.1
2019-05-23T04:12:57.218Z,97.2
2019-05-23T04:13:58.615Z,97.2
2019-05-23T04:15:00.036Z,97.3
2019-05-23T04:16:01.428Z,97.4
2019-05-23T04:17:02.829Z,97.5
2019-05-23T04:18:03.662Z,97.4
2019-05-23T04:20:06.231Z,97.4
2019-05-23T04:22:08.774Z,97.5
2019-05-23T04:23:10.173Z,97.7
2019-05-23T04:26:13.855Z,97.5
2019-05-23T04:27:15.260Z,97.5
2019-05-23T04:28:16.093Z,97.5
2019-05-23T04:29:17.487Z,97.3
2019-05-23T04:31:20.038Z,97.3
2019-05-23T04:32:21.434Z,97.2
2019-05-23T04:33:22.839Z,97.3
2019-05-23T04:35:25.450Z,97.1
2019-05-23T04:36:26.843Z,97.1
2019-05-23T04:37:28.242Z,97.1
2019-05-23T04:38:29.008Z,97
2019-05-23T04:39:29.643Z,96.9
2019-05-23T04:41:32.191Z,96.7
2019-05-23T04:42:33.591Z,96.7
2019-05-23T04:43:34.990Z,96.8
2019-05-23T04:46:38.286Z,96.7
2019-05-23T04:47:39.683Z,96.9
2019-05-23T04:48:40.446Z,96.9
2019-05-23T04:49:41.839Z,96.9
2019-05-23T04:50:43.235Z,96.8
2019-05-23T04:51:44.655Z,96.8
2019-05-23T04:52:46.051Z,96.7
2019-05-23T04:53:47.494Z,96.6
2019-05-23T04:54:48.900Z,96.6
2019-05-23T04:55:50.303Z,96.6
2019-05-23T04:57:52.839Z,96.6
2019-05-23T04:58:53.581Z,96.6
2019-05-23T05:01:57.291Z,96.6
2019-05-23T05:03:59.812Z,96.5
2019-05-23T05:05:01.211Z,96.5
2019-05-23T05:07:03.766Z,96.6
2019-05-23T05:08:05.789Z,96.5
2019-05-23T05:14:11.554Z,96.3
2019-05-23T05:15:12.945Z,96.5
2019-05-23T05:17:15.495Z,96.2
2019-05-23T05:22:20.732Z,96
2019-05-23T05:23:22.137Z,96.1
2019-05-23T05:24:23.518Z,96.1
2019-05-23T05:25:24.926Z,96.1
2019-05-23T05:26:26.318Z,96.3
2019-05-23T05:27:27.741Z,96.4
2019-05-23T05:28:29.155Z,96.3
2019-05-23T05:29:29.958Z,96.2
2019-05-23T05:30:31.343Z,96.1
2019-05-23T05:31:32.777Z,96.2
2019-05-23T05:32:45.729Z,96.1
2019-05-23T05:33:35.099Z,95.9
2019-05-23T05:34:36.506Z,95.9
2019-05-23T05:35:37.888Z,96
2019-05-23T05:36:39.321Z,95.9
2019-05-23T05:37:40.713Z,95.6
2019-05-23T05:38:42.113Z,95.5
2019-05-23T05:42:46.284Z,95.6
2019-05-23T05:43:47.684Z,95.7
2019-05-23T05:44:49.072Z,95.6
2019-05-23T05:47:52.759Z,95.7
2019-05-23T05:48:54.156Z,95.5
2019-05-23T05:49:54.940Z,95.5
2019-05-23T05:50:56.336Z,95.7
2019-05-23T05:51:57.733Z,95.6
2019-05-23T05:52:59.148Z,95.6
2019-05-23T05:54:03.685Z,95.1
2019-05-23T05:55:01.545Z,95.2
2019-05-23T05:56:03.007Z,95.2
2019-05-23T05:58:05.539Z,94.9
2019-05-23T05:59:06.939Z,94.8
2019-05-23T06:00:07.703Z,94.7
2019-05-23T06:01:08.637Z,94.5
2019-05-23T06:02:10.037Z,94.4
2019-05-23T06:03:11.698Z,94.5
2019-05-23T06:05:13.239Z,94.9
2019-05-23T06:06:14.637Z,94.7
2019-05-23T06:08:17.181Z,94.4
2019-05-23T06:10:19.148Z,94.3
2019-05-23T06:11:20.540Z,94.5
2019-05-23T06:12:21.929Z,94.4
2019-05-23T06:18:29.050Z,94.3
2019-05-23T06:19:30.445Z,94.4
2019-05-23T06:20:31.212Z,94.3
2019-05-23T06:21:31.837Z,94.1
2019-05-23T06:22:33.232Z,93.8
2019-05-23T06:23:34.655Z,93.4
2019-05-23T06:24:52.988Z,93.2
2019-05-23T06:25:36.894Z,93.3
2019-05-23T06:28:40.583Z,93.4
2019-05-23T06:29:41.984Z,93.2
2019-05-23T06:33:46.148Z,93.3
2019-05-23T06:34:47.540Z,93.5
2019-05-23T06:35:48.925Z,93.5
2019-05-23T06:36:50.328Z,93.3
2019-05-23T06:37:50.893Z,92.9
2019-05-23T06:41:55.093Z,92.7
2019-05-23T06:42:56.509Z,92.1
2019-05-23T06:43:57.931Z,91.7
2019-05-23T06:48:02.723Z,91.7
2019-05-23T06:50:05.295Z,90.7
2019-05-23T06:51:06.052Z,91.1
2019-05-23T06:52:07.458Z,91.1
2019-05-23T06:53:08.918Z,91
2019-05-23T06:54:10.325Z,91.2
2019-05-23T06:55:11.741Z,91.2
2019-05-23T06:58:15.451Z,90
2019-05-23T06:59:16.351Z,90
2019-05-23T07:00:17.764Z,90.1
2019-05-23T07:04:21.677Z,89.5
2019-05-23T07:05:23.074Z,89.6
2019-05-23T07:08:26.729Z,88.8
2019-05-23T07:09:28.131Z,88.4
2019-05-23T07:11:30.025Z,88
2019-05-23T07:12:31.427Z,86.3
2019-05-23T07:13:32.829Z,86.1
2019-05-23T07:15:35.607Z,86.3
2019-05-23T07:16:35.971Z,86
2019-05-23T07:19:38.822Z,84.9
2019-05-23T07:20:40.258Z,85
2019-05-23T07:21:41.367Z,84.7
2019-05-23T07:22:42.766Z,84.3
2019-05-23T07:24:59.006Z,83.6
2019-05-23T07:26:47.457Z,84.4
2019-05-23T07:27:48.857Z,83.1
2019-05-23T07:29:51.390Z,82.5
2019-05-23T07:30:52.789Z,82.6
2019-05-23T07:31:53.507Z,82.5
2019-05-23T07:32:54.927Z,81.8
2019-05-23T07:34:02.791Z,81.3
2019-05-23T07:35:58.537Z,78.7
2019-05-23T07:37:00.016Z,79.9
2019-05-23T07:38:01.414Z,81.5
2019-05-23T07:40:03.581Z,80.5
2019-05-23T07:45:08.918Z,77.7
2019-05-23T07:46:10.314Z,77.3
2019-05-23T07:47:11.743Z,77.8
2019-05-23T07:48:13.176Z,78.9
2019-05-23T07:49:14.594Z,78.5
2019-05-23T07:50:15.380Z,77.7
2019-05-23T07:51:16.781Z,76.3
2019-05-23T07:54:19.871Z,77.9
2019-05-23T07:55:21.240Z,79
2019-05-23T07:56:22.657Z,78
2019-05-23T07:57:24.064Z,76.1
2019-05-23T07:58:24.641Z,76.1
2019-05-23T07:59:26.062Z,75.7
2019-05-23T08:00:27.485Z,74.9
2019-05-23T08:02:28.575Z,73.5
2019-05-23T08:03:29.975Z,75.7
2019-05-23T08:05:32.527Z,74.7
2019-05-23T08:06:33.929Z,75
2019-05-23T08:07:35.320Z,75
2019-05-23T08:09:37.853Z,75.5
2019-05-23T08:10:39.258Z,74.4
2019-05-23T08:11:40.662Z,73.8
2019-05-23T08:12:41.641Z,74.8
2019-05-23T08:13:43.038Z,75
2019-05-23T08:14:44.448Z,73.1
2019-05-23T08:15:45.844Z,71.7
2019-05-23T08:16:47.243Z,71.2
2019-05-23T08:17:48.642Z,73.4
2019-05-23T08:18:50.036Z,73.7
2019-05-23T08:19:51.493Z,70.2
2019-05-23T08:21:54.013Z,71.4
2019-05-23T08:22:54.772Z,70.9
2019-05-23T08:23:55.420Z,71.4
2019-05-23T08:24:56.860Z,71.2
2019-05-23T08:28:00.503Z,72.9
2019-05-23T08:29:26.554Z,70.7
2019-05-23T08:30:02.937Z,71
2019-05-23T08:31:04.354Z,72.8
2019-05-23T08:32:05.755Z,72.2
2019-05-23T08:33:06.516Z,70
2019-05-23T08:34:07.918Z,72.1
2019-05-23T08:35:09.376Z,72.7
2019-05-23T08:36:10.082Z,71.5
2019-05-23T08:37:11.499Z,70.9
2019-05-23T08:39:14.037Z,70.3
2019-05-23T08:40:15.480Z,71.8
2019-05-23T08:41:16.852Z,68.6
2019-05-23T08:42:18.282Z,68
2019-05-23T08:43:19.040Z,69.9
2019-05-23T08:44:20.440Z,70.2
2019-05-23T08:45:21.896Z,70.1
2019-05-23T08:46:23.352Z,73.7
2019-05-23T08:53:30.912Z,70.8
2019-05-23T08:54:32.305Z,68.3
2019-05-23T08:56:34.847Z,69.2
2019-05-23T08:57:36.241Z,70.8
2019-05-23T08:58:43.447Z,68.5
2019-05-23T08:59:38.782Z,71.6
2019-05-23T09:00:40.216Z,70.5
2019-05-23T09:01:41.612Z,69.8
2019-05-23T09:02:43.012Z,68.1
2019-05-23T09:05:06.116Z,69.6
2019-05-23T09:06:46.720Z,71.4
2019-05-23T09:07:48.117Z,72
2019-05-23T09:08:49.511Z,72.7
2019-05-23T09:11:53.194Z,70
2019-05-23T09:12:56.782Z,70
2019-05-23T09:13:55.528Z,71.8
2019-05-23T09:14:56.941Z,70.3
2019-05-23T09:18:00.686Z,69.3
2019-05-23T09:20:03.215Z,69.6
2019-05-23T09:22:05.754Z,69.3
2019-05-23T09:23:07.156Z,72.3
2019-05-23T09:26:10.483Z,71.1
2019-05-23T09:27:12.026Z,70.6
2019-05-23T09:28:12.485Z,67.6
2019-05-23T09:29:13.890Z,70.3
2019-05-23T09:30:15.284Z,69
2019-05-23T09:32:17.853Z,68.9
2019-05-23T09:33:19.237Z,68.1
2019-05-23T09:34:20.065Z,68.9
2019-05-23T09:36:22.576Z,67.6
2019-05-23T09:37:24.213Z,70.3
2019-05-23T09:38:24.660Z,70.2
2019-05-23T09:53:47.778Z,68.2
2019-05-23T09:54:42.531Z,67.3
2019-05-23T09:55:43.932Z,68
2019-05-23T09:57:46.478Z,68.4
2019-05-23T09:58:47.877Z,68.5
2019-05-23T09:59:49.283Z,69.8
2019-05-23T10:00:50.221Z,69.4
2019-05-23T10:02:52.014Z,65.4
2019-05-23T10:03:53.421Z,65.4
2019-05-23T10:04:54.411Z,64.1
2019-05-23T10:05:55.806Z,65.8
2019-05-23T10:06:57.237Z,66.4
2019-05-23T10:08:59.780Z,67
2019-05-23T10:10:01.171Z,68.1
2019-05-23T10:11:02.574Z,67.4
2019-05-23T10:12:03.981Z,70.7
2019-05-23T10:13:05.386Z,69
2019-05-23T10:14:06.784Z,69
2019-05-23T10:15:07.530Z,65.5
2019-05-23T10:18:11.328Z,68
2019-05-23T10:19:12.691Z,68.4
2019-05-23T10:20:14.092Z,67.5
2019-05-23T10:21:15.497Z,67.5
2019-05-23T10:22:16.919Z,65.3
2019-05-23T10:23:18.370Z,67.4
2019-05-23T10:24:19.780Z,67.8
2019-05-23T10:25:20.551Z,68.5
2019-05-23T10:26:22.013Z,67.3
2019-05-23T10:27:23.414Z,64.6
2019-05-23T10:28:24.808Z,65.6
2019-05-23T10:29:26.198Z,65.2
2019-05-23T10:30:27.598Z,65.4
2019-05-23T10:31:29.031Z,66.4
2019-05-23T10:35:33.215Z,67.7
2019-05-23T10:37:36.013Z,69.3
2019-05-23T10:38:37.423Z,67
2019-05-23T10:39:38.816Z,67.4
2019-05-23T10:40:40.212Z,67.3
2019-05-23T10:41:41.615Z,67.2
2019-05-23T10:43:44.163Z,69.9
2019-05-23T10:44:45.574Z,69.1
2019-05-23T10:45:46.335Z,70.6
2019-05-23T10:46:47.745Z,69.1
2019-05-23T10:47:49.165Z,69.2
2019-05-23T10:48:50.565Z,68.7
2019-05-23T10:49:51.962Z,67
2019-05-23T10:50:53.369Z,67.2
2019-05-23T10:53:59.147Z,66.9
2019-05-23T10:54:58.609Z,69.2
2019-05-23T10:55:59.469Z,69.8
2019-05-23T10:57:00.862Z,70.1
2019-05-23T10:58:02.262Z,68.8
2019-05-23T10:59:02.865Z,68.9
2019-05-23T11:00:04.375Z,70.2
2019-05-23T11:01:05.759Z,67.8
2019-05-23T11:02:07.184Z,67.2
2019-05-23T11:03:08.572Z,68.2
2019-05-23T11:07:12.292Z,68.1
2019-05-23T11:14:20.038Z,69.5
2019-05-23T11:15:21.433Z,68
2019-05-23T11:16:22.201Z,68.4
2019-05-23T11:17:23.585Z,67.9
2019-05-23T11:18:24.979Z,68.6
2019-05-23T11:19:26.416Z,68.7
2019-05-23T11:20:27.817Z,67
2019-05-23T11:21:29.238Z,67.7
2019-05-23T11:24:32.958Z,65.5
2019-05-23T11:25:34.319Z,66
2019-05-23T11:26:35.152Z,66.8
2019-05-23T11:27:36.542Z,66.8
2019-05-23T11:28:37.924Z,67.8
2019-05-23T11:29:39.348Z,66.9
2019-05-23T11:30:39.924Z,65.6
2019-05-23T11:31:41.319Z,66.5
2019-05-23T11:32:42.706Z,67.9
2019-05-23T11:33:44.112Z,68
2019-05-23T11:34:45.518Z,67
2019-05-23T11:35:46.923Z,67.3
2019-05-23T11:36:47.780Z,66.1
2019-05-23T11:44:57.121Z,64.8
2019-05-23T11:45:58.527Z,66.1
2019-05-23T11:46:59.304Z,67
2019-05-23T11:48:00.707Z,65.5
2019-05-23T11:56:10.041Z,64.4
2019-05-23T11:57:11.151Z,64.6
2019-05-23T11:58:11.527Z,64.9
2019-05-23T12:00:13.352Z,65.1
2019-05-23T12:01:21.452Z,65.7
2019-05-23T12:02:14.808Z,66.7
2019-05-23T12:03:16.202Z,65.9
2019-05-23T12:04:17.711Z,65.7
2019-05-23T12:07:21.055Z,67
2019-05-23T12:08:22.466Z,66
2019-05-23T12:10:25.004Z,65.3
2019-05-23T12:14:30.027Z,66.5
2019-05-23T12:17:32.057Z,65.8
2019-05-23T12:18:33.446Z,66
2019-05-23T12:19:34.853Z,65.7
2019-05-23T12:20:36.336Z,66
2019-05-23T12:22:38.964Z,65.3
2019-05-23T12:23:39.530Z,66.3
2019-05-23T12:25:41.264Z,62.9
2019-05-23T12:26:42.649Z,62.2
2019-05-23T12:28:44.023Z,63.7
2019-05-23T12:29:45.413Z,63.7
2019-05-23T12:30:46.818Z,63.4
2019-05-23T12:31:50.054Z,63.8
2019-05-23T12:32:49.518Z,62.6
2019-05-23T12:37:19.391Z,65.3
2019-05-23T12:42:53.749Z,64.3
2019-05-23T12:43:55.162Z,62.4
2019-05-23T12:52:03.885Z,64.1
2019-05-23T12:53:05.284Z,62.6
2019-05-23T12:54:06.893Z,61.5
2019-05-23T12:55:07.257Z,64
2019-05-23T12:56:08.997Z,65.4
2019-05-23T13:00:12.864Z,65.3
2019-05-23T13:01:13.631Z,64.3
2019-05-23T13:02:15.011Z,63.7
2019-05-23T13:03:16.408Z,63.6
2019-05-23T13:04:17.816Z,63.8
2019-05-23T13:05:19.237Z,64.9
2019-05-23T13:06:20.624Z,65.6
2019-05-23T13:07:36.834Z,65.6
2019-05-23T13:08:23.202Z,63.1
2019-05-23T13:09:24.614Z,63.9
2019-05-23T13:10:26.288Z,62.7
2019-05-23T13:14:30.462Z,65.6
2019-05-23T13:15:31.870Z,65.5
2019-05-23T13:17:34.399Z,66.6
2019-05-23T13:18:35.784Z,65.6
2019-05-23T13:19:37.189Z,63.2
2019-05-23T13:22:40.237Z,65
2019-05-23T13:23:41.633Z,65.3
2019-05-23T13:25:44.250Z,64.4
2019-05-23T13:26:45.646Z,65
2019-05-23T13:32:52.081Z,64.3
2019-05-23T13:33:53.478Z,64.8
2019-05-23T13:35:56.019Z,62.7
2019-05-23T13:36:57.463Z,62.3
2019-05-23T13:37:58.850Z,62.8
2019-05-23T13:39:00.273Z,62.7
2019-05-23T13:40:01.648Z,61.8
2019-05-23T13:41:03.069Z,63
2019-05-23T13:42:03.813Z,64.8
2019-05-23T13:43:09.081Z,65.3
2019-05-23T13:44:06.802Z,63.4
2019-05-23T13:46:09.124Z,63.4
2019-05-23T13:47:10.531Z,65.1
2019-05-23T13:48:11.913Z,64.3
2019-05-23T13:50:14.438Z,62.6
2019-05-23T13:51:15.857Z,63.2
2019-05-23T13:52:16.657Z,63.3
2019-05-23T13:53:18.041Z,63.5
2019-05-23T13:54:19.443Z,62
2019-05-23T14:01:27.641Z,62.9
2019-05-23T14:02:28.411Z,62.3
2019-05-23T14:04:31.160Z,61.4
2019-05-23T14:05:32.563Z,63.1
2019-05-23T14:06:33.971Z,63.2
2019-05-23T14:10:38.753Z,61.4
2019-05-23T14:11:40.241Z,61.3
2019-05-23T14:13:42.120Z,62.9
2019-05-23T14:16:46.895Z,62
2019-05-23T14:17:47.279Z,63
2019-05-23T14:18:48.692Z,63.4
2019-05-23T14:19:50.127Z,61.8
2019-05-23T14:21:51.894Z,62.1
2019-05-23T14:22:52.651Z,61.6
2019-05-23T14:23:54.052Z,61.6
2019-05-23T14:24:55.443Z,61.4
2019-05-23T14:25:56.855Z,62.4
2019-05-23T14:31:02.293Z,61.7
2019-05-23T14:32:02.891Z,62.7
2019-05-23T14:33:03.656Z,63.1
2019-05-23T14:34:05.043Z,62.9
2019-05-23T14:35:06.444Z,60.9
2019-05-23T14:39:10.554Z,61.3
2019-05-23T14:40:11.963Z,60.1
2019-05-23T14:41:13.344Z,60.7
2019-05-23T14:43:15.460Z,60.7
2019-05-23T14:45:17.974Z,61.8
2019-05-23T14:47:20.539Z,60.1
2019-05-23T14:48:21.955Z,61.3
2019-05-23T14:49:23.352Z,62.2
2019-05-23T14:53:27.761Z,61.3
2019-05-23T14:54:29.149Z,61.1
2019-05-23T14:55:30.546Z,61.2
2019-05-23T14:57:33.074Z,59.5
2019-05-23T14:58:34.507Z,59
2019-05-23T14:59:35.904Z,59
2019-05-23T15:02:39.563Z,61
2019-05-23T15:03:40.363Z,60.4
2019-05-23T15:08:52.155Z,58.9
2019-05-23T15:10:48.764Z,59.8
2019-05-23T15:11:50.165Z,60
2019-05-23T15:12:51.561Z,58.1
2019-05-23T15:25:04.216Z,60.1
2019-05-23T15:26:23.774Z,60.5
2019-05-23T15:27:06.124Z,59.1
2019-05-23T15:29:08.679Z,57.5
2019-05-23T15:30:10.067Z,59.1
2019-05-23T15:31:11.451Z,58.5
2019-05-23T15:32:12.852Z,58
2019-05-23T15:33:14.301Z,58
2019-05-23T15:36:17.290Z,58.7
2019-05-23T15:37:18.692Z,57.5
2019-05-23T15:39:21.234Z,57.4
2019-05-23T15:40:22.629Z,57.2
2019-05-23T15:41:24.026Z,56.9
2019-05-23T15:42:25.418Z,57
2019-05-23T15:43:26.849Z,56.2
2019-05-23T15:46:23.686Z,57.1
2019-05-23T15:48:25.632Z,57.2
2019-05-23T15:50:28.157Z,58.1
2019-05-23T15:51:29.769Z,57.2
2019-05-23T15:52:30.155Z,56.6
2019-05-23T15:53:31.550Z,56.9
2019-05-23T15:54:32.967Z,56.3
2019-05-23T15:55:34.369Z,56.5
2019-05-23T15:56:35.763Z,55.9
2019-05-23T15:57:36.529Z,56.2
2019-05-23T15:58:37.942Z,57.4
2019-05-23T15:59:39.334Z,56.9
2019-05-23T16:02:42.988Z,57.4
2019-05-23T16:03:44.418Z,58
2019-05-23T16:04:45.808Z,57.8
2019-05-23T16:05:47.205Z,57.7
2019-05-23T16:06:48.595Z,57.7
2019-05-23T16:07:49.400Z,56.4
2019-05-23T16:09:52.006Z,56.6
2019-05-23T16:10:52.540Z,57
2019-05-23T16:11:53.954Z,56.1
2019-05-23T16:12:55.345Z,55.9
2019-05-23T16:13:56.734Z,55.9
2019-05-23T16:18:00.915Z,57.3
2019-05-23T16:19:02.343Z,54.8
2019-05-23T16:20:02.876Z,55.9
2019-05-23T16:21:04.263Z,54.6
2019-05-23T16:22:05.672Z,55.5
2019-05-23T16:23:07.086Z,55.9
2019-05-23T16:24:08.479Z,54.7
2019-05-23T16:25:09.918Z,53.2
2019-05-23T16:26:12.069Z,53.5
2019-05-23T16:27:12.424Z,53.6
2019-05-23T16:28:13.188Z,54.5
2019-05-23T16:29:14.578Z,54.5
2019-05-23T16:30:19.152Z,54
2019-05-23T16:32:18.644Z,53.6
2019-05-23T16:33:20.039Z,53.8
2019-05-23T16:35:25.560Z,54.2
2019-05-23T16:36:23.924Z,54.5
2019-05-23T16:37:25.348Z,55.6
2019-05-23T16:38:26.270Z,55.1
2019-05-23T16:39:44.128Z,54
2019-05-23T16:40:29.014Z,53.8
2019-05-23T16:41:30.407Z,53.8
2019-05-23T16:42:31.802Z,53.1
2019-05-23T16:43:36.934Z,53.7
2019-05-23T16:44:34.310Z,54.4
2019-05-23T16:45:35.706Z,54.4
2019-05-23T16:46:37.125Z,54.8
2019-05-23T16:47:38.514Z,54.9
2019-05-23T16:50:41.553Z,53
2019-05-23T16:51:42.954Z,52.9
2019-05-23T16:52:44.351Z,53
2019-05-23T16:55:48.079Z,52.6
2019-05-23T16:58:51.088Z,54.5
2019-05-23T16:59:52.490Z,53.5
2019-05-23T17:00:53.902Z,53.4
2019-05-23T17:02:06.677Z,54.1
2019-05-23T17:02:56.137Z,54
2019-05-23T17:05:10.745Z,53.6
2019-05-23T17:05:59.648Z,53.7
2019-05-23T17:07:01.062Z,54.8
2019-05-23T17:09:02.934Z,54.3
2019-05-23T17:10:09.792Z,54.4
2019-05-23T17:11:05.324Z,53.6
2019-05-23T17:12:06.735Z,54
2019-05-23T17:13:07.573Z,53.3
2019-05-23T17:14:08.968Z,53.8
2019-05-23T17:15:10.391Z,53.8
2019-05-23T17:16:11.796Z,54
2019-05-23T17:17:13.377Z,55.5
2019-05-23T17:18:13.860Z,54.9
2019-05-23T17:19:14.625Z,54.9
2019-05-23T17:20:20.592Z,54.7
2019-05-23T17:21:17.043Z,55.2
2019-05-23T17:26:23.192Z,54.5
2019-05-23T17:27:24.585Z,54.6
2019-05-23T17:28:25.984Z,54.8
2019-05-23T17:29:26.772Z,54.3
2019-05-23T17:30:28.165Z,55
2019-05-23T17:31:29.563Z,55.1
2019-05-23T17:32:30.967Z,55.5
2019-05-23T17:33:32.571Z,55.7
2019-05-23T17:36:35.268Z,55.8
2019-05-23T17:38:37.774Z,55
2019-05-23T17:39:38.539Z,55.2
2019-05-23T17:40:39.940Z,55.9
2019-05-23T17:41:41.358Z,56.1
2019-05-23T17:42:42.756Z,55.7
2019-05-23T17:43:44.179Z,55.9
2019-05-23T17:44:45.554Z,55.9
2019-05-23T17:49:50.859Z,56.6
2019-05-23T17:50:52.263Z,56.8
2019-05-23T17:51:53.690Z,57.2
2019-05-23T17:52:55.091Z,57.2
2019-05-23T17:53:56.508Z,56.7
2019-05-23T17:55:59.072Z,57.1
2019-05-23T17:57:00.500Z,56.9
2019-05-23T17:58:01.898Z,57
2019-05-23T17:59:03.303Z,57.2
2019-05-23T18:00:04.101Z,57.3
2019-05-23T18:01:05.499Z,57.5
2019-05-23T18:03:08.072Z,57.5
2019-05-23T18:04:08.632Z,57.6
2019-05-23T18:05:10.031Z,57.4
2019-05-23T18:06:11.455Z,57.5
2019-05-23T18:07:12.877Z,57.5
2019-05-23T18:09:15.425Z,57.7
2019-05-23T18:10:16.201Z,57.9
2019-05-23T18:11:17.602Z,58.2
2019-05-23T18:12:19.025Z,58.3
2019-05-23T18:13:20.429Z,58.1
2019-05-23T18:14:21.867Z,58.4
2019-05-23T18:15:22.738Z,58.8
2019-05-23T18:16:23.608Z,58.9
2019-05-23T18:17:25.046Z,58.6
2019-05-23T18:19:27.570Z,59
2019-05-23T18:20:28.338Z,59.2
2019-05-23T18:22:30.892Z,59.4
2019-05-23T18:23:32.302Z,59.2
2019-05-23T18:24:33.699Z,59.5
2019-05-23T18:27:37.392Z,59.8
2019-05-23T18:30:40.435Z,59.4
2019-05-23T18:31:41.826Z,59.6
2019-05-23T18:32:43.245Z,60.3
2019-05-23T18:33:44.644Z,60.2
2019-05-23T18:34:46.031Z,60.1
2019-05-23T18:35:47.425Z,59.9
2019-05-23T18:36:48.854Z,60
2019-05-23T18:37:50.306Z,60.3
2019-05-23T18:41:08.622Z,61.7
2019-05-23T18:46:59.812Z,62.7
2019-05-23T18:48:01.243Z,62.6
2019-05-23T18:49:02.643Z,63.2
2019-05-23T18:50:04.036Z,63.6
2019-05-23T18:51:04.807Z,64.2
2019-05-23T18:53:07.365Z,64.4
2019-05-23T18:54:08.772Z,64.7
2019-05-23T18:56:11.296Z,64.8
2019-05-23T18:57:12.693Z,64.9
2019-05-23T18:58:14.102Z,65.2
2019-05-23T18:59:15.526Z,65.3
2019-05-23T19:01:17.476Z,65.4
2019-05-23T19:02:18.840Z,65.6
2019-05-23T19:04:21.405Z,65.6
2019-05-23T19:05:22.779Z,66.1
2019-05-23T19:06:24.177Z,66
2019-05-23T19:08:26.738Z,66.4
2019-05-23T19:09:28.130Z,66.7
2019-05-23T19:10:29.529Z,66.7
2019-05-23T19:11:29.676Z,66.9
2019-05-23T19:13:32.242Z,66.9
2019-05-23T19:15:34.769Z,67.3
2019-05-23T19:16:36.164Z,67.2
2019-05-23T19:17:37.564Z,67.3
2019-05-23T19:18:38.990Z,67.5
2019-05-23T19:19:40.397Z,67.5
2019-05-23T19:20:41.781Z,68
2019-05-23T19:21:42.564Z,69.2
2019-05-23T19:22:43.991Z,69.4
2019-05-23T19:23:45.407Z,69.8
2019-05-23T19:26:49.051Z,70.6
2019-05-23T19:27:50.470Z,70.2
2019-05-23T19:28:51.868Z,71.1
2019-05-23T19:29:53.268Z,70.7
2019-05-23T19:30:54.668Z,71.2
2019-05-23T19:31:55.461Z,71.4
2019-05-23T19:32:56.886Z,71.6
2019-05-23T19:33:58.284Z,72
2019-05-23T19:38:03.113Z,73.5
2019-05-23T19:39:04.500Z,74
2019-05-23T19:40:05.906Z,74.1
2019-05-23T19:44:10.100Z,74
2019-05-23T19:45:11.523Z,73.8
2019-05-23T19:46:12.896Z,73.6
2019-05-23T19:47:14.294Z,74
2019-05-23T19:48:15.712Z,74
2019-05-23T19:49:17.114Z,73.5
2019-05-23T19:50:18.514Z,73.5
2019-05-23T19:51:19.907Z,73.3
2019-05-23T19:52:20.665Z,72.8
2019-05-23T19:53:22.086Z,73.5
2019-05-23T19:58:28.027Z,72.9
2019-05-23T19:59:29.420Z,72.5
2019-05-23T20:00:30.828Z,71.9
2019-05-23T20:01:32.598Z,72.1
2019-05-23T20:02:33.357Z,72.5
2019-05-23T20:03:34.780Z,72.2
2019-05-23T20:04:36.191Z,72.2
2019-05-23T20:08:40.981Z,73.3
2019-05-23T20:09:42.378Z,74.4
2019-05-23T20:16:49.750Z,73.8
2019-05-23T20:17:52.564Z,72.8
2019-05-23T20:19:53.078Z,72.7
2019-05-23T20:20:54.475Z,72.6
2019-05-23T20:21:55.861Z,73
2019-05-23T20:22:56.644Z,73.6
2019-05-23T20:23:58.044Z,73.6
2019-05-23T20:24:59.464Z,73.8
2019-05-23T20:26:00.854Z,74.5
2019-05-23T20:27:02.385Z,75
2019-05-23T20:28:02.786Z,74.9
2019-05-23T20:35:10.422Z,76.8
2019-05-23T20:36:13.327Z,75.4
2019-05-23T20:37:12.705Z,75